createdAt,value
2023-12-04T00:00:20.442Z,0.00
2023-12-04T00:01:20.457Z,0.00
2023-12-04T00:02:20.428Z,0.00
2023-12-04T00:03:20.455Z,0.00
2023-12-04T00:04:20.425Z,0.00
2023-12-04T00:05:20.407Z,0.00
2023-12-04T00:06:20.379Z,0.00
2023-12-04T00:07:20.363Z,0.00
2023-12-04T00:08:20.357Z,0.00
2023-12-04T00:09:20.338Z,0.00
2023-12-04T00:10:20.345Z,0.00
2023-12-04T00:11:20.396Z,0.00
2023-12-04T00:12:20.362Z,0.00
2023-12-04T00:13:20.317Z,0.00
2023-12-04T00:14:20.295Z,0.00
2023-12-04T00:15:20.294Z,0.00
2023-12-04T00:16:20.265Z,0.00
2023-12-04T00:17:20.251Z,0.00
2023-12-04T00:18:20.334Z,0.00
2023-12-04T00:19:20.273Z,0.00
2023-12-04T00:20:20.250Z,0.00
2023-12-04T00:21:20.238Z,0.00
2023-12-04T00:22:20.204Z,0.00
2023-12-04T00:23:20.215Z,0.00
2023-12-04T00:24:20.190Z,0.00
2023-12-04T00:25:20.174Z,0.00
2023-12-04T00:26:20.165Z,0.00
2023-12-04T00:27:20.176Z,0.00
2023-12-04T00:28:20.145Z,0.00
2023-12-04T00:29:20.140Z,0.00
2023-12-04T00:30:20.129Z,0.00
2023-12-04T00:31:20.101Z,0.00
2023-12-04T00:32:20.097Z,0.00
2023-12-04T00:33:20.216Z,0.00
2023-12-04T00:34:20.225Z,0.00
2023-12-04T00:35:20.077Z,0.00
2023-12-04T00:36:20.085Z,0.00
2023-12-04T00:37:20.051Z,0.00
2023-12-04T00:38:20.037Z,0.00
2023-12-04T00:39:20.162Z,0.00
2023-12-04T00:40:20.016Z,0.00
2023-12-04T00:41:20.126Z,0.00
2023-12-04T00:42:20.019Z,0.00
2023-12-04T00:43:20.080Z,0.00
2023-12-04T00:44:19.974Z,0.00
2023-12-04T00:45:19.987Z,0.00
2023-12-04T00:46:19.972Z,0.00
2023-12-04T00:47:19.944Z,0.00
2023-12-04T00:48:20.030Z,0.00
2023-12-04T00:49:20.006Z,0.00
2023-12-04T00:50:19.939Z,0.00
2023-12-04T00:51:19.958Z,0.00
2023-12-04T00:52:19.928Z,0.00
2023-12-04T00:53:19.891Z,0.00
2023-12-04T00:54:19.918Z,0.00
2023-12-04T00:55:19.859Z,0.00
2023-12-04T00:56:19.919Z,0.00
2023-12-04T00:58:19.837Z,0.00
2023-12-04T00:59:19.825Z,0.00
2023-12-04T01:00:19.829Z,0.00
2023-12-04T01:01:20.965Z,0.00
2023-12-04T01:02:19.811Z,0.00
2023-12-04T01:03:19.773Z,0.00
2023-12-04T01:04:19.812Z,0.00
2023-12-04T01:05:19.773Z,0.00
2023-12-04T01:06:19.766Z,0.00
2023-12-04T01:07:19.733Z,0.00
2023-12-04T01:08:20.087Z,0.00
2023-12-04T01:09:19.719Z,0.00
2023-12-04T01:10:19.728Z,0.00
2023-12-04T01:11:19.691Z,0.00
2023-12-04T01:12:19.704Z,0.00
2023-12-04T01:13:19.681Z,0.00
2023-12-04T01:14:19.736Z,0.00
2023-12-04T01:15:19.650Z,0.00
2023-12-04T01:16:19.658Z,0.00
2023-12-04T01:17:19.652Z,0.00
2023-12-04T01:18:19.752Z,0.00
2023-12-04T01:19:19.797Z,0.00
2023-12-04T01:20:19.612Z,0.00
2023-12-04T01:21:19.588Z,0.00
2023-12-04T01:22:19.605Z,0.00
2023-12-04T01:23:19.589Z,0.00
2023-12-04T01:24:19.575Z,0.00
2023-12-04T01:25:19.594Z,0.00
2023-12-04T01:26:19.577Z,0.00
2023-12-04T01:27:19.551Z,0.00
2023-12-04T01:28:19.539Z,0.00
2023-12-04T01:29:19.529Z,0.00
2023-12-04T01:30:19.511Z,0.00
2023-12-04T01:31:19.516Z,0.00
2023-12-04T01:32:19.493Z,0.00
2023-12-04T01:33:19.531Z,0.00
2023-12-04T01:34:19.519Z,0.00
2023-12-04T01:35:19.474Z,0.00
2023-12-04T01:36:19.864Z,0.00
2023-12-04T01:37:19.449Z,0.00
2023-12-04T01:38:19.425Z,0.00
2023-12-04T01:39:19.414Z,0.00
2023-12-04T01:40:19.432Z,0.00
2023-12-04T01:41:19.400Z,0.00
2023-12-04T01:42:19.392Z,0.00
2023-12-04T01:43:19.401Z,0.00
2023-12-04T01:44:19.386Z,0.00
2023-12-04T01:45:19.347Z,0.00
2023-12-04T01:46:19.358Z,0.00
2023-12-04T01:47:19.351Z,0.00
2023-12-04T01:48:19.401Z,0.00
2023-12-04T01:49:19.383Z,0.00
2023-12-04T01:50:19.303Z,0.00
2023-12-04T01:51:19.311Z,0.00
2023-12-04T01:52:19.294Z,0.00
2023-12-04T01:53:19.279Z,0.00
2023-12-04T01:54:19.257Z,0.00
2023-12-04T01:55:19.252Z,0.00
2023-12-04T01:56:19.270Z,0.00
2023-12-04T01:57:19.230Z,0.00
2023-12-04T01:58:19.232Z,0.00
2023-12-04T01:59:19.220Z,0.00
2023-12-04T02:00:19.231Z,0.00
2023-12-04T02:01:19.236Z,0.00
2023-12-04T02:02:19.204Z,0.00
2023-12-04T02:03:19.228Z,0.00
2023-12-04T02:04:19.235Z,0.00
2023-12-04T02:05:19.176Z,0.00
2023-12-04T02:06:19.137Z,0.00
2023-12-04T02:07:19.174Z,0.00
2023-12-04T02:08:19.115Z,0.00
2023-12-04T02:09:19.119Z,0.00
2023-12-04T02:10:19.201Z,0.00
2023-12-04T02:11:19.045Z,2.00
2023-12-04T02:12:20.505Z,1.00
2023-12-04T02:13:19.105Z,0.00
2023-12-04T02:14:19.061Z,0.00
2023-12-04T02:15:19.054Z,0.00
2023-12-04T02:16:19.033Z,0.00
2023-12-04T02:17:19.026Z,0.00
2023-12-04T02:18:19.106Z,0.00
2023-12-04T02:19:19.078Z,0.00
2023-12-04T02:20:19.003Z,0.00
2023-12-04T02:21:19.008Z,0.00
2023-12-04T02:22:19.003Z,0.00
2023-12-04T02:23:18.991Z,0.00
2023-12-04T02:24:19.001Z,0.00
2023-12-04T02:25:26.634Z,0.00
2023-12-04T02:26:18.939Z,0.00
2023-12-04T02:27:18.931Z,0.00
2023-12-04T02:28:18.923Z,0.00
2023-12-04T02:29:19.047Z,0.00
2023-12-04T02:30:18.924Z,0.00
2023-12-04T02:31:18.946Z,0.00
2023-12-04T02:32:18.877Z,0.00
2023-12-04T02:33:18.930Z,0.00
2023-12-04T02:34:18.936Z,0.00
2023-12-04T02:35:18.882Z,0.00
2023-12-04T02:36:18.846Z,0.00
2023-12-04T02:37:18.865Z,0.00
2023-12-04T02:38:18.817Z,0.00
2023-12-04T02:39:18.798Z,0.00
2023-12-04T02:40:18.796Z,0.00
2023-12-04T02:41:18.827Z,0.00
2023-12-04T02:42:18.777Z,0.00
2023-12-04T02:43:18.786Z,0.00
2023-12-04T02:44:18.761Z,0.00
2023-12-04T02:45:18.812Z,0.00
2023-12-04T02:46:18.753Z,0.00
2023-12-04T02:47:18.800Z,0.00
2023-12-04T02:48:18.752Z,0.00
2023-12-04T02:49:18.723Z,0.00
2023-12-04T02:50:18.729Z,0.00
2023-12-04T02:51:18.762Z,0.00
2023-12-04T02:52:18.705Z,0.00
2023-12-04T02:53:18.678Z,0.00
2023-12-04T02:54:18.657Z,0.00
2023-12-04T02:55:18.639Z,0.00
2023-12-04T02:56:18.649Z,0.00
2023-12-04T02:57:18.671Z,0.00
2023-12-04T02:58:18.607Z,0.00
2023-12-04T02:59:18.606Z,0.00
2023-12-04T03:00:18.589Z,0.00
2023-12-04T03:01:18.655Z,0.00
2023-12-04T03:02:18.552Z,0.00
2023-12-04T03:03:18.566Z,0.00
2023-12-04T03:04:18.640Z,0.00
2023-12-04T03:05:18.536Z,0.00
2023-12-04T03:06:18.553Z,0.00
2023-12-04T03:07:18.540Z,0.00
2023-12-04T03:08:18.526Z,0.00
2023-12-04T03:09:18.570Z,0.00
2023-12-04T03:10:18.535Z,0.00
2023-12-04T03:11:18.497Z,0.00
2023-12-04T03:12:18.540Z,0.00
2023-12-04T03:13:18.578Z,0.00
2023-12-04T03:14:18.507Z,0.00
2023-12-04T03:15:18.528Z,0.00
2023-12-04T03:16:18.510Z,0.00
2023-12-04T03:17:18.505Z,0.00
2023-12-04T03:18:18.569Z,0.00
2023-12-04T03:19:18.536Z,0.00
2023-12-04T03:20:18.479Z,0.00
2023-12-04T03:21:18.370Z,0.00
2023-12-04T03:22:18.361Z,0.00
2023-12-04T03:23:18.357Z,0.00
2023-12-04T03:24:18.350Z,0.00
2023-12-04T03:25:18.347Z,0.00
2023-12-04T03:26:18.379Z,0.00
2023-12-04T03:27:18.315Z,0.00
2023-12-04T03:28:18.305Z,0.00
2023-12-04T03:29:18.302Z,0.00
2023-12-04T03:30:18.271Z,0.00
2023-12-04T03:31:18.266Z,0.00
2023-12-04T03:32:18.329Z,0.00
2023-12-04T03:33:18.312Z,0.00
2023-12-04T03:34:18.324Z,0.00
2023-12-04T03:35:18.227Z,0.00
2023-12-04T03:36:18.229Z,0.00
2023-12-04T03:37:18.228Z,0.00
2023-12-04T03:38:18.203Z,0.00
2023-12-04T03:39:18.218Z,0.00
2023-12-04T03:40:18.232Z,0.00
2023-12-04T03:41:18.185Z,0.00
2023-12-04T03:42:18.157Z,0.00
2023-12-04T03:43:18.199Z,0.00
2023-12-04T03:44:18.180Z,0.00
2023-12-04T03:45:18.150Z,0.00
2023-12-04T03:46:19.259Z,0.00
2023-12-04T03:47:18.126Z,0.00
2023-12-04T03:48:18.148Z,0.00
2023-12-04T03:49:18.158Z,0.00
2023-12-04T03:50:18.103Z,0.00
2023-12-04T03:51:18.065Z,0.00
2023-12-04T03:52:18.150Z,0.00
2023-12-04T03:53:18.093Z,0.00
2023-12-04T03:54:18.029Z,0.00
2023-12-04T03:55:18.079Z,0.00
2023-12-04T03:56:18.056Z,0.00
2023-12-04T03:57:18.002Z,0.00
2023-12-04T03:58:17.998Z,0.00
2023-12-04T03:59:18.039Z,0.00
2023-12-04T04:00:17.997Z,0.00
2023-12-04T04:01:18.011Z,0.00
2023-12-04T04:02:17.960Z,0.00
2023-12-04T04:03:17.964Z,0.00
2023-12-04T04:04:17.964Z,0.00
2023-12-04T04:05:17.945Z,0.00
2023-12-04T04:06:17.916Z,0.00
2023-12-04T04:07:17.989Z,0.00
2023-12-04T04:08:17.888Z,0.00
2023-12-04T04:09:17.880Z,0.00
2023-12-04T04:10:17.898Z,0.00
2023-12-04T04:11:17.879Z,0.00
2023-12-04T04:12:17.877Z,0.00
2023-12-04T04:13:17.911Z,0.00
2023-12-04T04:14:17.836Z,0.00
2023-12-04T04:15:17.823Z,0.00
2023-12-04T04:16:17.896Z,0.00
2023-12-04T04:17:17.826Z,0.00
2023-12-04T04:18:17.911Z,0.00
2023-12-04T04:19:18.027Z,0.00
2023-12-04T04:20:17.792Z,0.00
2023-12-04T04:21:17.769Z,0.00
2023-12-04T04:22:17.807Z,0.00
2023-12-04T04:23:17.743Z,0.00
2023-12-04T04:24:17.732Z,0.00
2023-12-04T04:25:17.773Z,0.00
2023-12-04T04:26:17.720Z,0.00
2023-12-04T04:27:17.704Z,0.00
2023-12-04T04:28:17.696Z,0.00
2023-12-04T04:29:17.681Z,0.00
2023-12-04T04:30:17.665Z,0.00
2023-12-04T04:31:17.688Z,0.00
2023-12-04T04:32:17.648Z,0.00
2023-12-04T04:33:17.666Z,0.00
2023-12-04T04:34:17.793Z,0.00
2023-12-04T04:35:17.618Z,0.00
2023-12-04T04:36:17.623Z,0.00
2023-12-04T04:37:17.615Z,0.00
2023-12-04T04:38:17.619Z,0.00
2023-12-04T04:39:17.606Z,0.00
2023-12-04T04:40:17.610Z,0.00
2023-12-04T04:41:17.562Z,0.00
2023-12-04T04:42:17.558Z,0.00
2023-12-04T04:43:17.567Z,0.00
2023-12-04T04:44:17.543Z,0.00
2023-12-04T04:45:17.516Z,0.00
2023-12-04T04:46:17.547Z,0.00
2023-12-04T04:47:17.497Z,0.00
2023-12-04T04:48:17.474Z,0.00
2023-12-04T04:49:17.620Z,0.00
2023-12-04T04:50:17.536Z,0.00
2023-12-04T04:51:17.455Z,0.00
2023-12-04T04:52:17.444Z,0.00
2023-12-04T04:53:17.440Z,0.00
2023-12-04T04:54:17.417Z,0.00
2023-12-04T04:55:45.979Z,0.00
2023-12-04T04:56:17.402Z,0.00
2023-12-04T04:57:17.388Z,0.00
2023-12-04T04:58:17.376Z,0.00
2023-12-04T04:59:17.379Z,0.00
2023-12-04T05:00:17.391Z,0.00
2023-12-04T05:01:17.414Z,0.00
2023-12-04T05:02:17.352Z,0.00
2023-12-04T05:03:17.358Z,0.00
2023-12-04T05:04:17.493Z,0.00
2023-12-04T05:05:17.314Z,0.00
2023-12-04T05:06:17.348Z,0.00
2023-12-04T05:07:17.328Z,0.00
2023-12-04T05:08:17.301Z,0.00
2023-12-04T05:09:17.275Z,0.00
2023-12-04T05:10:17.287Z,0.00
2023-12-04T05:11:17.270Z,0.00
2023-12-04T05:12:17.201Z,2.00
2023-12-04T05:13:17.253Z,1.00
2023-12-04T05:14:17.275Z,0.00
2023-12-04T05:15:17.252Z,0.00
2023-12-04T05:16:17.231Z,0.00
2023-12-04T05:17:17.205Z,0.00
2023-12-04T05:18:17.188Z,0.00
2023-12-04T05:19:17.228Z,0.00
2023-12-04T05:20:17.171Z,0.00
2023-12-04T05:21:17.146Z,0.00
2023-12-04T05:22:17.199Z,0.00
2023-12-04T05:23:17.153Z,0.00
2023-12-04T05:24:17.136Z,0.00
2023-12-04T05:25:17.194Z,0.00
2023-12-04T05:26:17.100Z,0.00
2023-12-04T05:27:17.130Z,0.00
2023-12-04T05:28:17.139Z,0.00
2023-12-04T05:29:17.100Z,0.00
2023-12-04T05:30:17.048Z,3.00
2023-12-04T05:31:17.465Z,3.00
2023-12-04T05:32:16.977Z,3.00
2023-12-04T05:33:17.111Z,2.00
2023-12-04T05:34:17.033Z,2.00
2023-12-04T05:35:16.977Z,2.00
2023-12-04T05:36:16.949Z,1.00
2023-12-04T05:37:17.025Z,3.00
2023-12-04T05:38:16.913Z,2.00
2023-12-04T05:39:16.958Z,0.00
2023-12-04T05:40:17.030Z,0.00
2023-12-04T05:41:16.936Z,0.00
2023-12-04T05:42:16.914Z,0.00
2023-12-04T05:43:17.131Z,0.00
2023-12-04T05:44:16.965Z,0.00
2023-12-04T05:45:17.000Z,0.00
2023-12-04T05:46:16.920Z,0.00
2023-12-04T05:47:16.948Z,0.00
2023-12-04T05:48:16.916Z,0.00
2023-12-04T05:49:16.977Z,0.00
2023-12-04T05:50:16.899Z,0.00
2023-12-04T05:51:16.821Z,0.00
2023-12-04T05:52:16.979Z,0.00
2023-12-04T05:53:16.808Z,0.00
2023-12-04T05:54:16.822Z,0.00
2023-12-04T05:55:17.031Z,0.00
2023-12-04T05:56:16.808Z,0.00
2023-12-04T05:57:16.770Z,0.00
2023-12-04T05:58:16.895Z,0.00
2023-12-04T05:59:16.761Z,0.00
2023-12-04T06:00:16.754Z,0.00
2023-12-04T06:01:16.833Z,0.00
2023-12-04T06:02:16.916Z,0.00
2023-12-04T06:03:16.740Z,0.00
2023-12-04T06:04:16.850Z,0.00
2023-12-04T06:05:16.724Z,0.00
2023-12-04T06:06:16.689Z,0.00
2023-12-04T06:07:16.781Z,0.00
2023-12-04T06:08:16.664Z,0.00
2023-12-04T06:09:16.693Z,0.00
2023-12-04T06:10:16.688Z,0.00
2023-12-04T06:11:16.637Z,0.00
2023-12-04T06:12:16.625Z,0.00
2023-12-04T06:13:16.877Z,0.00
2023-12-04T06:14:16.612Z,0.00
2023-12-04T06:15:16.601Z,0.00
2023-12-04T06:16:16.649Z,0.00
2023-12-04T06:17:16.581Z,0.00
2023-12-04T06:18:16.628Z,0.00
2023-12-04T06:19:16.742Z,0.00
2023-12-04T06:20:16.555Z,0.00
2023-12-04T06:21:16.532Z,0.00
2023-12-04T06:22:16.632Z,0.00
2023-12-04T06:23:16.520Z,0.00
2023-12-04T06:24:16.512Z,0.00
2023-12-04T06:25:16.740Z,0.00
2023-12-04T06:26:16.496Z,0.00
2023-12-04T06:27:16.475Z,0.00
2023-12-04T06:28:16.532Z,0.00
2023-12-04T06:29:16.474Z,0.00
2023-12-04T06:30:16.457Z,0.00
2023-12-04T06:31:16.533Z,0.00
2023-12-04T06:32:16.421Z,0.00
2023-12-04T06:33:16.413Z,0.00
2023-12-04T06:34:16.523Z,0.00
2023-12-04T06:35:19.253Z,0.00
2023-12-04T06:36:16.406Z,0.00
2023-12-04T06:37:16.427Z,0.00
2023-12-04T06:38:16.356Z,0.00
2023-12-04T06:39:16.376Z,0.00
2023-12-04T06:40:16.474Z,0.00
2023-12-04T06:41:16.327Z,0.00
2023-12-04T06:42:16.384Z,0.00
2023-12-04T06:43:16.372Z,0.00
2023-12-04T06:44:16.297Z,0.00
2023-12-04T06:45:16.288Z,0.00
2023-12-04T06:46:16.320Z,0.00
2023-12-04T06:47:16.313Z,0.00
2023-12-04T06:48:16.307Z,0.00
2023-12-04T06:49:16.354Z,0.00
2023-12-04T06:50:16.251Z,1.00
2023-12-04T06:51:16.201Z,1.00
2023-12-04T06:52:16.175Z,1.00
2023-12-04T06:53:16.191Z,1.00
2023-12-04T06:54:16.141Z,1.00
2023-12-04T06:55:16.162Z,2.00
2023-12-04T06:56:19.280Z,2.00
2023-12-04T06:57:16.112Z,2.00
2023-12-04T06:58:16.193Z,3.00
2023-12-04T06:59:16.168Z,1.00
2023-12-04T07:00:21.453Z,2.00
2023-12-04T07:01:16.106Z,2.00
2023-12-04T07:02:16.207Z,3.00
2023-12-04T07:03:16.090Z,7.00
2023-12-04T07:04:16.120Z,7.00
2023-12-04T07:05:16.143Z,10.00
2023-12-04T07:06:16.011Z,10.00
2023-12-04T07:07:16.076Z,9.00
2023-12-04T07:08:15.995Z,7.00
2023-12-04T07:09:16.187Z,13.00
2023-12-04T07:10:16.653Z,14.00
2023-12-04T07:11:15.975Z,16.00
2023-12-04T07:12:15.999Z,17.00
2023-12-04T07:13:15.958Z,19.00
2023-12-04T07:14:15.983Z,24.00
2023-12-04T07:15:15.978Z,25.00
2023-12-04T07:16:15.944Z,26.00
2023-12-04T07:17:15.904Z,28.00
2023-12-04T07:18:15.951Z,30.00
2023-12-04T07:19:15.971Z,33.00
2023-12-04T07:20:15.902Z,31.00
2023-12-04T07:21:15.873Z,35.00
2023-12-04T07:22:15.888Z,37.00
2023-12-04T07:23:15.840Z,39.00
2023-12-04T07:24:15.862Z,41.00
2023-12-04T07:25:15.908Z,43.00
2023-12-04T07:26:15.821Z,45.00
2023-12-04T07:27:15.837Z,47.00
2023-12-04T07:28:15.805Z,49.00
2023-12-04T07:29:15.825Z,53.00
2023-12-04T07:30:18.386Z,55.00
2023-12-04T07:31:15.894Z,59.00
2023-12-04T07:32:15.754Z,67.00
2023-12-04T07:33:15.787Z,67.00
2023-12-04T07:34:15.841Z,78.00
2023-12-04T07:35:15.735Z,80.00
2023-12-04T07:36:15.717Z,88.00
2023-12-04T07:37:15.774Z,93.00
2023-12-04T07:38:15.737Z,102.00
2023-12-04T07:39:15.674Z,110.00
2023-12-04T07:40:15.739Z,118.00
2023-12-04T07:41:15.688Z,127.00
2023-12-04T07:42:15.673Z,136.00
2023-12-04T07:43:15.817Z,150.00
2023-12-04T07:44:15.630Z,159.00
2023-12-04T07:45:15.626Z,165.00
2023-12-04T07:46:15.657Z,178.00
2023-12-04T07:47:15.608Z,189.00
2023-12-04T07:48:15.648Z,197.00
2023-12-04T07:49:15.648Z,203.00
2023-12-04T07:50:15.570Z,209.00
2023-12-04T07:51:15.547Z,211.00
2023-12-04T07:52:15.574Z,212.00
2023-12-04T07:53:15.562Z,219.00
2023-12-04T07:54:15.520Z,224.00
2023-12-04T07:55:15.655Z,229.00
2023-12-04T07:56:15.555Z,236.00
2023-12-04T07:57:15.505Z,242.00
2023-12-04T07:58:15.578Z,244.00
2023-12-04T07:59:15.538Z,250.00
2023-12-04T08:00:15.488Z,259.00
2023-12-04T08:01:15.490Z,269.00
2023-12-04T08:02:15.479Z,247.00
2023-12-04T08:03:15.441Z,279.00
2023-12-04T08:04:15.524Z,285.00
2023-12-04T08:05:15.440Z,295.00
2023-12-04T08:06:15.446Z,305.00
2023-12-04T08:07:15.413Z,317.00
2023-12-04T08:08:15.429Z,329.00
2023-12-04T08:09:15.362Z,341.00
2023-12-04T08:10:15.555Z,356.00
2023-12-04T08:11:15.397Z,366.00
2023-12-04T08:12:15.359Z,373.00
2023-12-04T08:13:15.379Z,383.00
2023-12-04T08:14:15.324Z,392.00
2023-12-04T08:15:15.325Z,404.00
2023-12-04T08:16:15.384Z,405.00
2023-12-04T08:17:15.284Z,416.00
2023-12-04T08:18:15.301Z,422.00
2023-12-04T08:19:15.377Z,434.00
2023-12-04T08:20:21.924Z,442.00
2023-12-04T08:21:15.306Z,450.00
2023-12-04T08:22:15.270Z,462.00
2023-12-04T08:23:15.260Z,463.00
2023-12-04T08:24:15.228Z,472.00
2023-12-04T08:25:15.251Z,479.00
2023-12-04T08:26:15.220Z,478.00
2023-12-04T08:27:15.179Z,486.00
2023-12-04T08:28:15.208Z,482.00
2023-12-04T08:29:15.166Z,487.00
2023-12-04T08:30:15.152Z,496.00
2023-12-04T08:31:15.175Z,512.00
2023-12-04T08:32:15.169Z,513.00
2023-12-04T08:33:15.193Z,525.00
2023-12-04T08:34:15.157Z,532.00
2023-12-04T08:35:15.094Z,543.00
2023-12-04T08:36:15.165Z,550.00
2023-12-04T08:37:15.193Z,564.00
2023-12-04T08:38:15.114Z,573.00
2023-12-04T08:39:15.083Z,582.00
2023-12-04T08:40:15.080Z,599.00
2023-12-04T08:41:15.032Z,608.00
2023-12-04T08:42:21.080Z,619.00
2023-12-04T08:43:15.086Z,630.00
2023-12-04T08:44:15.028Z,633.00
2023-12-04T08:45:16.687Z,643.00
2023-12-04T08:46:15.106Z,650.00
2023-12-04T08:47:15.009Z,655.00
2023-12-04T08:48:15.091Z,665.00
2023-12-04T08:49:15.022Z,672.00
2023-12-04T08:50:14.960Z,677.00
2023-12-04T08:51:15.044Z,688.00
2023-12-04T08:52:14.967Z,696.00
2023-12-04T08:53:14.928Z,699.00
2023-12-04T08:54:18.249Z,708.00
2023-12-04T08:55:15.004Z,721.00
2023-12-04T08:56:19.460Z,733.00
2023-12-04T08:57:14.947Z,745.00
2023-12-04T08:58:14.900Z,757.00
2023-12-04T08:59:14.949Z,783.00
2023-12-04T09:00:14.916Z,793.00
2023-12-04T09:01:14.898Z,814.00
2023-12-04T09:02:15.397Z,839.00
2023-12-04T09:03:21.860Z,849.00
2023-12-04T09:04:14.978Z,868.00
2023-12-04T09:05:14.944Z,873.00
2023-12-04T09:06:14.826Z,893.00
2023-12-04T09:08:28.026Z,905.00
2023-12-04T09:08:45.471Z,912.00
2023-12-04T09:09:14.908Z,921.00
2023-12-04T09:10:21.462Z,926.00
2023-12-04T09:11:21.547Z,937.00
2023-12-04T09:12:14.743Z,933.00
2023-12-04T09:13:14.719Z,937.00
2023-12-04T09:14:14.719Z,949.00
2023-12-04T09:15:14.769Z,953.00
2023-12-04T09:16:14.672Z,968.00
2023-12-04T09:17:14.743Z,977.00
2023-12-04T09:18:15.369Z,994.00
2023-12-04T09:19:14.711Z,1005.00
2023-12-04T09:20:14.783Z,1020.00
2023-12-04T09:21:14.671Z,1035.00
2023-12-04T09:22:19.515Z,1045.00
2023-12-04T09:23:14.627Z,1052.00
2023-12-04T09:24:14.725Z,1068.00
2023-12-04T09:25:14.570Z,1069.00
2023-12-04T09:26:14.599Z,1075.00
2023-12-04T09:27:14.638Z,1090.00
2023-12-04T09:28:14.659Z,1094.00
2023-12-04T09:29:14.675Z,1094.00
2023-12-04T09:30:14.566Z,1109.00
2023-12-04T09:31:14.578Z,1112.00
2023-12-04T09:32:14.540Z,1118.00
2023-12-04T09:33:14.759Z,1121.00
2023-12-04T09:34:14.497Z,1126.00
2023-12-04T09:35:14.513Z,1120.00
2023-12-04T09:36:14.626Z,1121.00
2023-12-04T09:37:14.756Z,1112.00
2023-12-04T09:38:14.458Z,1117.00
2023-12-04T09:39:14.683Z,1115.00
2023-12-04T09:40:14.443Z,1117.00
2023-12-04T09:41:14.419Z,1117.00
2023-12-04T09:42:14.614Z,1123.00
2023-12-04T09:43:14.397Z,1119.00
2023-12-04T09:44:14.399Z,1118.00
2023-12-04T09:45:14.474Z,1107.00
2023-12-04T09:46:14.374Z,1110.00
2023-12-04T09:47:14.391Z,1106.00
2023-12-04T09:48:14.607Z,1099.00
2023-12-04T09:49:14.451Z,1100.00
2023-12-04T09:50:14.541Z,1100.00
2023-12-04T09:51:14.351Z,1098.00
2023-12-04T09:52:14.315Z,1097.00
2023-12-04T09:53:14.296Z,1101.00
2023-12-04T09:54:14.342Z,1112.00
2023-12-04T09:55:14.293Z,1120.00
2023-12-04T09:56:14.278Z,1120.00
2023-12-04T09:57:14.305Z,1138.00
2023-12-04T09:58:14.268Z,1131.00
2023-12-04T09:59:14.234Z,1136.00
2023-12-04T10:00:14.250Z,1154.00
2023-12-04T10:01:14.274Z,1142.00
2023-12-04T10:02:14.424Z,1151.00
2023-12-04T10:03:14.380Z,1149.00
2023-12-04T10:04:14.206Z,1143.00
2023-12-04T10:05:14.241Z,1147.00
2023-12-04T10:06:14.218Z,1145.00
2023-12-04T10:07:14.162Z,1142.00
2023-12-04T10:08:14.157Z,1146.00
2023-12-04T10:09:14.134Z,1144.00
2023-12-04T10:10:14.164Z,1146.00
2023-12-04T10:11:14.122Z,1150.00
2023-12-04T10:12:14.151Z,1155.00
2023-12-04T10:13:14.154Z,1158.00
2023-12-04T10:14:14.125Z,1172.00
2023-12-04T10:15:14.112Z,1185.00
2023-12-04T10:16:14.232Z,1186.00
2023-12-04T10:17:14.056Z,1186.00
2023-12-04T10:18:14.179Z,1182.00
2023-12-04T10:19:14.105Z,1178.00
2023-12-04T10:20:14.371Z,1172.00
2023-12-04T10:21:19.763Z,1164.00
2023-12-04T10:22:14.011Z,1161.00
2023-12-04T10:23:14.091Z,1147.00
2023-12-04T10:24:14.032Z,1148.00
2023-12-04T10:25:13.965Z,1150.00
2023-12-04T10:26:14.072Z,1155.00
2023-12-04T10:27:14.570Z,1165.00
2023-12-04T10:28:13.961Z,1163.00
2023-12-04T10:29:13.939Z,1171.00
2023-12-04T10:30:14.057Z,1179.00
2023-12-04T10:31:13.917Z,1182.00
2023-12-04T10:32:13.929Z,1171.00
2023-12-04T10:33:14.165Z,1174.00
2023-12-04T10:34:13.965Z,1171.00
2023-12-04T10:35:13.895Z,1175.00
2023-12-04T10:36:13.979Z,1171.00
2023-12-04T10:37:13.911Z,1174.00
2023-12-04T10:38:13.840Z,1186.00
2023-12-04T10:39:13.837Z,1179.00
2023-12-04T10:40:13.862Z,1188.00
2023-12-04T10:41:13.818Z,1185.00
2023-12-04T10:42:13.889Z,1181.00
2023-12-04T10:43:13.854Z,1178.00
2023-12-04T10:44:13.778Z,1190.00
2023-12-04T10:45:13.838Z,1197.00
2023-12-04T10:46:13.821Z,1205.00
2023-12-04T10:47:13.768Z,1215.00
2023-12-04T10:48:13.897Z,1211.00
2023-12-04T10:49:13.948Z,1202.00
2023-12-04T10:50:13.845Z,1185.00
2023-12-04T10:51:13.760Z,1173.00
2023-12-04T10:52:13.734Z,1152.00
2023-12-04T10:53:13.911Z,1146.00
2023-12-04T10:54:14.299Z,1141.00
2023-12-04T10:55:13.662Z,1147.00
2023-12-04T10:56:13.768Z,1153.00
2023-12-04T10:57:14.195Z,1169.00
2023-12-04T10:58:13.632Z,1164.00
2023-12-04T10:59:13.653Z,1153.00
2023-12-04T11:00:13.845Z,1148.00
2023-12-04T11:01:13.634Z,1134.00
2023-12-04T11:02:13.721Z,1115.00
2023-12-04T11:03:13.651Z,1110.00
2023-12-04T11:04:13.608Z,1110.00
2023-12-04T11:05:13.627Z,1109.00
2023-12-04T11:06:13.657Z,1114.00
2023-12-04T11:07:13.597Z,1122.00
2023-12-04T11:08:17.506Z,1140.00
2023-12-04T11:09:13.558Z,1154.00
2023-12-04T11:10:13.539Z,1175.00
2023-12-04T11:11:13.503Z,1202.00
2023-12-04T11:12:13.645Z,1223.00
2023-12-04T11:13:13.575Z,1240.00
2023-12-04T11:14:13.491Z,1244.00
2023-12-04T11:15:13.495Z,1258.00
2023-12-04T11:16:13.637Z,1279.00
2023-12-04T11:17:13.451Z,1330.00
2023-12-04T11:18:13.696Z,1359.00
2023-12-04T11:19:13.502Z,1398.00
2023-12-04T11:20:13.468Z,1444.00
2023-12-04T11:21:13.602Z,1466.00
2023-12-04T11:22:13.395Z,1473.00
2023-12-04T11:23:13.406Z,1447.00
2023-12-04T11:24:13.422Z,1403.00
2023-12-04T11:25:13.361Z,1337.00
2023-12-04T11:26:13.390Z,1272.00
2023-12-04T11:27:13.398Z,1232.00
2023-12-04T11:28:13.350Z,1206.00
2023-12-04T11:29:13.335Z,1208.00
2023-12-04T11:30:14.632Z,1223.00
2023-12-04T11:31:13.320Z,1240.00
2023-12-04T11:32:13.330Z,1265.00
2023-12-04T11:33:13.447Z,1300.00
2023-12-04T11:34:13.361Z,1360.00
2023-12-04T11:35:13.274Z,1409.00
2023-12-04T11:36:14.413Z,1469.00
2023-12-04T11:37:13.255Z,1538.00
2023-12-04T11:38:13.225Z,1585.00
2023-12-04T11:39:13.286Z,1625.00
2023-12-04T11:40:13.206Z,1655.00
2023-12-04T11:41:13.193Z,1672.00
2023-12-04T11:42:13.198Z,1676.00
2023-12-04T11:43:13.184Z,1662.00
2023-12-04T11:44:13.191Z,1648.00
2023-12-04T11:45:13.180Z,1605.00
2023-12-04T11:46:13.200Z,1555.00
2023-12-04T11:47:13.203Z,1508.00
2023-12-04T11:48:13.220Z,1482.00
2023-12-04T11:49:13.262Z,1470.00
2023-12-04T11:50:13.136Z,1462.00
2023-12-04T11:51:13.130Z,1460.00
2023-12-04T11:52:13.122Z,1469.00
2023-12-04T11:53:13.076Z,1487.00
2023-12-04T11:54:13.086Z,1500.00
2023-12-04T11:55:13.095Z,1518.00
2023-12-04T11:56:13.225Z,1519.00
2023-12-04T11:57:13.040Z,1517.00
2023-12-04T11:58:13.019Z,1507.00
2023-12-04T11:59:13.006Z,1491.00
2023-12-04T12:00:13.183Z,1467.00
2023-12-04T12:01:13.025Z,1445.00
2023-12-04T12:02:13.139Z,1426.00
2023-12-04T12:03:20.972Z,1401.00
2023-12-04T12:04:13.060Z,1383.00
2023-12-04T12:05:13.236Z,1366.00
2023-12-04T12:06:13.182Z,1350.00
2023-12-04T12:07:13.078Z,1332.00
2023-12-04T12:08:12.921Z,1315.00
2023-12-04T12:09:12.966Z,1292.00
2023-12-04T12:10:13.031Z,1280.00
2023-12-04T12:11:12.886Z,1264.00
2023-12-04T12:12:13.003Z,1261.00
2023-12-04T12:13:12.953Z,1253.00
2023-12-04T12:14:12.857Z,1271.00
2023-12-04T12:15:12.889Z,1278.00
2023-12-04T12:16:12.845Z,1287.00
2023-12-04T12:17:12.842Z,1299.00
2023-12-04T12:18:12.920Z,1318.00
2023-12-04T12:19:13.011Z,1316.00
2023-12-04T12:20:12.795Z,1324.00
2023-12-04T12:21:12.851Z,1336.00
2023-12-04T12:22:12.769Z,1337.00
2023-12-04T12:23:12.775Z,1341.00
2023-12-04T12:24:12.830Z,1335.00
2023-12-04T12:25:12.767Z,1337.00
2023-12-04T12:26:12.861Z,1339.00
2023-12-04T12:27:15.497Z,1337.00
2023-12-04T12:28:12.700Z,1335.00
2023-12-04T12:29:12.726Z,1322.00
2023-12-04T12:30:12.781Z,1331.00
2023-12-04T12:31:12.707Z,1326.00
2023-12-04T12:32:12.677Z,1327.00
2023-12-04T12:33:12.792Z,1329.00
2023-12-04T12:34:12.749Z,1338.00
2023-12-04T12:35:12.848Z,1344.00
2023-12-04T12:36:12.704Z,1334.00
2023-12-04T12:37:12.622Z,1334.00
2023-12-04T12:38:12.624Z,1344.00
2023-12-04T12:39:12.655Z,1347.00
2023-12-04T12:40:12.588Z,1352.00
2023-12-04T12:41:12.602Z,1356.00
2023-12-04T12:42:12.603Z,1369.00
2023-12-04T12:43:12.678Z,1364.00
2023-12-04T12:44:12.595Z,1359.00
2023-12-04T12:45:13.040Z,1357.00
2023-12-04T12:46:12.548Z,1351.00
2023-12-04T12:47:12.595Z,1338.00
2023-12-04T12:48:12.634Z,1324.00
2023-12-04T12:49:12.520Z,1314.00
2023-12-04T12:50:12.664Z,1296.00